Time;durP1;ratioP1;P1;durP2;ratioP2;P2;SDS_P1;SDS_P2;PMS_P1;PMS_P2;Temp;Humidity;BMP_temperature;BMP_pressure;BME280_temperature;BME280_humidity;BME280_pressure;Samples;Min_cycle;Max_cycle;Signal;HPM_P1;HPM_P2
2022/02/09 00:03:45;;;;;;;18.02;6.55;;;5.20;92.00;;;;;;5072278;28;20513;-84
2022/02/09 00:06:16;;;;;;;12.88;5.95;;;5.10;92.00;;;;;;5072100;28;20481;-81
2022/02/09 00:08:41;;;;;;;10.90;5.68;;;5.10;91.90;;;;;;5074062;28;20468;-81
2022/02/09 00:11:10;;;;;;;12.95;5.85;;;5.00;91.80;;;;;;5089721;28;20032;-81
2022/02/09 00:14:01;;;;;;;11.70;5.82;;;5.10;91.90;;;;;;5095919;28;20032;-81
2022/02/09 00:19:19;;;;;;;20.15;7.95;;;5.10;92.10;;;;;;5096278;28;20031;-82
2022/02/09 00:58:45;;;;;;;12.75;5.32;;;4.80;92.30;;;;;;5095997;28;20027;-84
2022/02/09 01:40:20;;;;;;;9.32;4.80;;;4.60;92.20;;;;;;5074610;28;20032;-85
2022/02/09 01:56:22;;;;;;;8.15;4.63;;;4.80;92.20;;;;;;5074192;28;20035;-81
2022/02/09 01:58:49;;;;;;;6.90;3.92;;;4.90;92.00;;;;;;5073786;28;20033;-85
2022/02/09 02:01:14;;;;;;;8.27;4.47;;;4.90;91.80;;;;;;5073863;28;20020;-83
2022/02/09 02:03:40;;;;;;;7.00;4.07;;;4.90;91.80;;;;;;5074062;28;20043;-84
2022/02/09 02:06:06;;;;;;;6.57;4.22;;;4.90;91.60;;;;;;5073976;28;20032;-84
2022/02/09 02:08:33;;;;;;;9.32;4.63;;;5.00;91.70;;;;;;5073826;28;20029;-84
2022/02/09 02:11:22;;;;;;;7.95;4.22;;;5.00;91.70;;;;;;5074233;28;20067;-82
2022/02/09 02:16:30;;;;;;;9.35;4.95;;;5.10;91.10;;;;;;5073548;28;20030;-85
2022/02/09 02:19:01;;;;;;;;;;;5.10;91.20;;;;;;5073985;28;20017;-84
2022/02/09 03:13:39;;;;;;;5.10;3.55;;;5.10;92.00;;;;;;5072553;28;20605;-86
2022/02/09 03:16:10;;;;;;;12.60;4.15;;;5.00;91.90;;;;;;5072378;28;20020;-86
2022/02/09 03:24:13;;;;;;;7.60;3.85;;;5.00;92.40;;;;;;5072616;28;20055;-84
2022/02/09 03:42:58;;;;;;;5.38;4.00;;;5.10;92.00;;;;;;5072109;28;20471;-84
2022/02/09 03:48:26;;;;;;;5.40;3.08;;;5.10;92.00;;;;;;5071789;28;20139;-84
2022/02/09 03:53:51;;;;;;;4.82;2.78;;;5.10;92.30;;;;;;5072296;28;20028;-85
2022/02/09 03:58:52;;;;;;;7.65;3.17;;;5.10;93.20;;;;;;5072339;28;20119;-85
2022/02/09 04:01:19;;;;;;;5.28;3.03;;;5.00;93.10;;;;;;5072501;28;20055;-86
2022/02/09 04:03:45;;;;;;;7.72;3.42;;;5.00;93.10;;;;;;5071170;28;20385;-86
2022/02/09 04:06:11;;;;;;;5.88;3.22;;;5.00;93.00;;;;;;5072055;28;20021;-85
2022/02/09 04:08:45;;;;;;;5.80;3.30;;;5.00;93.10;;;;;;5071811;28;20055;-85
2022/02/09 04:11:19;;;;;;;5.28;3.05;;;5.00;93.40;;;;;;5071814;28;20036;-86
2022/02/09 04:14:01;;;;;;;5.80;3.22;;;5.10;93.50;;;;;;5071151;28;20029;-85
2022/02/09 04:38:33;;;;;;;7.72;4.25;;;5.00;92.10;;;;;;5089298;28;20055;-83
2022/02/09 04:41:36;;;;;;;8.32;3.80;;;5.00;91.80;;;;;;5090071;28;20465;-80
2022/02/09 04:44:19;;;;;;;13.07;3.90;;;5.00;91.40;;;;;;5071576;28;20041;-82
2022/02/09 04:54:33;;;;;;;5.50;3.25;;;5.20;91.80;;;;;;5093416;28;20115;-81
2022/02/09 04:57:04;;;;;;;7.20;3.70;;;5.20;92.10;;;;;;5095662;28;20471;-81
2022/02/09 04:59:41;;;;;;;7.20;3.28;;;5.20;92.70;;;;;;5095814;28;20028;-83
2022/02/09 05:05:10;;;;;;;6.20;3.00;;;5.00;93.10;;;;;;5095238;28;20109;-81
2022/02/09 05:24:04;;;;;;;8.10;3.45;;;5.00;92.70;;;;;;5095106;28;20072;-82
2022/02/09 05:26:46;;;;;;;6.13;3.72;;;5.10;92.20;;;;;;5095036;28;20507;-85
2022/02/09 05:29:12;;;;;;;12.85;4.25;;;5.10;92.60;;;;;;5092926;28;20028;-85
2022/02/09 05:31:38;;;;;;;11.23;5.63;;;5.10;92.70;;;;;;5094896;28;20031;-85
2022/02/09 05:34:03;;;;;;;10.02;3.58;;;5.10;92.00;;;;;;5095365;28;20485;-83
2022/02/09 05:36:29;;;;;;;6.63;3.63;;;5.10;91.70;;;;;;5096081;28;20111;-85
2022/02/09 05:38:56;;;;;;;9.52;3.65;;;5.10;91.80;;;;;;5094960;28;20028;-84
2022/02/09 05:41:22;;;;;;;7.47;4.10;;;5.20;92.00;;;;;;5094787;28;20654;-83
2022/02/09 05:43:47;;;;;;;6.50;3.60;;;5.10;92.50;;;;;;5094184;28;20031;-85
2022/02/09 05:46:58;;;;;;;9.57;4.03;;;5.10;92.80;;;;;;5094534;28;20044;-85
2022/02/09 05:51:57;;;;;;;9.77;3.85;;;5.00;93.10;;;;;;5094498;28;20412;-84
2022/02/09 05:57:12;;;;;;;8.15;3.50;;;4.90;93.80;;;;;;5094735;28;20026;-84
2022/02/09 05:59:37;;;;;;;8.75;3.83;;;4.80;93.70;;;;;;5093760;28;20036;-84
2022/02/09 06:02:03;;;;;;;7.00;3.72;;;4.70;93.90;;;;;;5093921;28;20020;-81
2022/02/09 06:04:29;;;;;;;5.88;3.83;;;4.60;93.70;;;;;;5094243;28;20586;-82
2022/02/09 06:06:55;;;;;;;8.60;4.25;;;4.60;93.20;;;;;;5094376;28;20034;-79
2022/02/09 06:09:20;;;;;;;9.48;4.85;;;4.60;93.30;;;;;;5094366;28;20031;-79
2022/02/09 06:20:18;;;;;;;12.65;4.07;;;4.70;93.70;;;;;;5086578;28;20043;-84
2022/02/09 06:22:44;;;;;;;8.40;4.05;;;4.70;93.90;;;;;;5094086;28;20461;-84
2022/02/09 06:25:09;;;;;;;6.75;3.70;;;4.70;94.00;;;;;;5093943;28;20034;-83
2022/02/09 06:27:35;;;;;;;7.13;3.75;;;4.60;94.00;;;;;;5094521;28;20058;-78
2022/02/09 06:30:01;;;;;;;8.90;4.35;;;4.60;94.20;;;;;;5092695;28;20027;-79
2022/02/09 06:32:28;;;;;;;12.27;4.70;;;4.60;94.20;;;;;;5092788;28;20036;-79
2022/02/09 06:34:53;;;;;;;16.67;5.03;;;4.60;94.30;;;;;;5092573;28;20035;-78
2022/02/09 06:37:37;;;;;;;15.70;6.45;;;4.60;94.30;;;;;;5092846;28;20476;-84
2022/02/09 06:40:04;;;;;;;18.50;8.13;;;4.60;94.20;;;;;;5092835;28;20042;-81
2022/02/09 06:42:31;;;;;;;13.90;7.43;;;4.60;94.10;;;;;;5092848;28;20020;-79
2022/02/09 06:45:03;;;;;;;16.58;5.60;;;4.70;94.30;;;;;;5092316;28;20153;-78
2022/02/09 06:47:29;;;;;;;11.02;5.22;;;4.90;94.20;;;;;;5088595;28;20044;-79
2022/02/09 06:50:02;;;;;;;13.93;5.80;;;5.20;93.70;;;;;;5091370;28;20023;-80
2022/02/09 06:52:28;;;;;;;18.27;5.57;;;5.40;93.70;;;;;;5093090;28;20026;-83
2022/02/09 06:55:12;;;;;;;10.20;5.35;;;5.80;93.30;;;;;;5093316;28;20190;-80
2022/02/09 06:58:17;;;;;;;9.15;5.10;;;6.10;93.00;;;;;;5093424;28;20020;-82
2022/02/09 07:00:34;;;;;;;16.98;4.93;;;6.30;92.30;;;;;;5091218;28;20034;-81
2022/02/09 07:03:00;;;;;;;13.27;7.03;;;6.50;92.10;;;;;;5093425;28;20391;-78
2022/02/09 07:05:25;;;;;;;11.05;5.20;;;6.80;91.80;;;;;;5093510;28;20016;-82
2022/02/09 07:07:51;;;;;;;36.65;5.55;;;6.90;91.60;;;;;;5092473;28;20111;-83
2022/02/09 07:10:17;;;;;;;16.38;5.15;;;7.10;91.40;;;;;;5093235;28;20027;-81
2022/02/09 07:12:43;;;;;;;10.27;4.97;;;7.40;91.10;;;;;;5093121;28;20032;-84
2022/02/09 07:15:14;;;;;;;16.50;5.32;;;7.50;91.00;;;;;;5093168;28;20080;-83
2022/02/09 07:17:41;;;;;;;12.25;5.43;;;7.70;90.70;;;;;;5092243;28;20051;-82
2022/02/09 07:20:16;;;;;;;13.00;4.82;;;8.10;90.30;;;;;;5092702;28;20487;-83
2022/02/09 07:22:43;;;;;;;10.98;5.15;;;8.40;90.00;;;;;;5092736;28;20024;-81
2022/02/09 07:25:15;;;;;;;34.20;5.28;;;8.90;88.70;;;;;;5092838;28;20110;-84
2022/02/09 07:27:52;;;;;;;13.40;5.45;;;9.30;87.70;;;;;;5092639;28;20043;-83
2022/02/09 07:30:22;;;;;;;11.55;5.30;;;9.70;86.80;;;;;;5092552;28;20052;-81
2022/02/09 07:33:02;;;;;;;14.75;7.47;;;10.00;86.00;;;;;;5092630;28;20494;-80
2022/02/09 07:35:28;;;;;;;12.45;5.50;;;10.40;84.80;;;;;;5092669;28;20095;-77
2022/02/09 07:37:54;;;;;;;17.50;5.03;;;10.70;84.40;;;;;;5092434;28;20028;-78
2022/02/09 07:40:19;;;;;;;17.75;6.10;;;11.10;82.80;;;;;;5092480;28;20027;-81
2022/02/09 07:42:56;;;;;;;19.33;6.00;;;11.10;83.10;;;;;;5092566;28;20025;-82
2022/02/09 07:50:41;;;;;;;12.48;5.20;;;12.00;81.90;;;;;;5092730;28;20017;-86
2022/02/09 07:55:36;;;;;;;22.42;6.03;;;13.30;79.90;;;;;;5092873;28;20027;-84
2022/02/09 07:58:03;;;;;;;13.90;5.78;;;13.80;78.00;;;;;;5092577;28;20016;-84
2022/02/09 08:00:29;;;;;;;18.13;5.30;;;14.00;76.20;;;;;;5093689;28;20035;-83
2022/02/09 08:02:55;;;;;;;13.88;5.75;;;14.60;75.60;;;;;;5092548;28;20031;-84
2022/02/09 08:05:21;;;;;;;14.32;6.93;;;15.00;74.50;;;;;;5092399;28;20024;-82
2022/02/09 08:07:47;;;;;;;11.60;6.55;;;15.70;73.00;;;;;;5092390;28;20032;-85
2022/02/09 08:10:20;;;;;;;13.88;6.65;;;16.10;72.40;;;;;;5092172;28;20013;-80
2022/02/09 08:29:17;;;;;;;15.40;7.03;;;16.90;69.70;;;;;;5068398;28;20032;-80
2022/02/09 08:34:11;;;;;;;26.65;6.95;;;18.00;66.30;;;;;;5086534;28;20020;-82
2022/02/09 08:36:37;;;;;;;14.85;6.35;;;18.40;66.30;;;;;;5095361;28;20023;-86
2022/02/09 08:39:04;;;;;;;22.77;7.18;;;18.90;65.10;;;;;;5095066;28;20020;-84
2022/02/09 08:41:30;;;;;;;11.18;5.57;;;19.40;64.60;;;;;;5095351;28;20031;-88
2022/02/09 08:43:56;;;;;;;26.52;5.93;;;20.10;63.10;;;;;;5095425;28;20036;-89
2022/02/09 08:46:21;;;;;;;10.35;5.80;;;20.30;62.20;;;;;;5092481;28;20032;-84
2022/02/09 08:48:47;;;;;;;11.48;5.43;;;20.90;61.60;;;;;;5087392;28;20385;-86
2022/02/09 08:51:13;;;;;;;16.02;5.97;;;21.60;60.90;;;;;;5095738;28;20020;-89
2022/02/09 08:53:39;;;;;;;13.57;4.85;;;21.70;59.30;;;;;;5090581;28;20028;-85
2022/02/09 08:56:08;;;;;;;16.02;6.00;;;21.50;59.10;;;;;;5094686;28;20030;-90
2022/02/09 08:58:35;;;;;;;12.90;6.00;;;21.40;60.00;;;;;;5095589;28;20023;-85
2022/02/09 09:01:11;;;;;;;20.42;5.85;;;21.80;59.60;;;;;;5092368;28;20134;-84
2022/02/09 09:03:48;;;;;;;12.50;5.57;;;21.70;59.10;;;;;;5095258;28;20015;-84
2022/02/09 09:06:19;;;;;;;16.63;4.97;;;22.50;58.40;;;;;;5098660;28;20035;-83
2022/02/09 09:58:12;;;;;;;45.60;8.70;;;21.30;58.60;;;;;;5091760;28;20078;-86
2022/02/09 10:34:17;;;;;;;54.40;10.23;;;19.30;63.40;;;;;;5090988;28;20549;-76
2022/02/09 10:36:52;;;;;;;18.50;9.05;;;19.30;64.00;;;;;;5092876;28;20414;-87
2022/02/09 10:39:30;;;;;;;17.15;9.57;;;19.40;63.10;;;;;;5086831;28;20020;-84
2022/02/09 10:42:15;;;;;;;21.92;9.07;;;19.30;63.70;;;;;;5093251;28;20028;-82
2022/02/09 10:44:56;;;;;;;105.07;12.48;;;19.20;63.70;;;;;;5091995;28;20016;-77
2022/02/09 10:47:31;;;;;;;22.65;8.30;;;19.70;64.60;;;;;;5092400;28;20079;-80
2022/02/09 10:50:37;;;;;;;51.40;9.48;;;25.40;58.60;;;;;;5093628;28;20107;-77
2022/02/09 10:53:05;;;;;;;48.05;10.15;;;30.30;53.90;;;;;;5092183;28;20483;-79
2022/02/09 10:55:43;;;;;;;31.67;7.18;;;33.00;49.30;;;;;;5092449;28;20024;-78
2022/02/09 10:58:12;;;;;;;14.25;6.30;;;33.60;47.60;;;;;;5092472;28;20016;-78
2022/02/09 11:00:46;;;;;;;10.90;6.15;;;34.10;46.70;;;;;;5091917;28;20098;-77
2022/02/09 11:03:19;;;;;;;13.23;6.30;;;33.40;45.40;;;;;;5087442;28;20376;-77
2022/02/09 11:05:48;;;;;;;10.73;6.95;;;31.10;47.40;;;;;;5091790;28;20464;-78
2022/02/09 11:08:14;;;;;;;12.05;6.90;;;28.80;49.00;;;;;;5091812;28;20383;-78
2022/02/09 11:10:40;;;;;;;16.55;7.78;;;26.30;51.30;;;;;;5091767;28;20375;-78
2022/02/09 11:13:11;;;;;;;22.52;7.82;;;24.70;53.60;;;;;;5090797;28;20025;-78
2022/02/09 11:15:41;;;;;;;10.98;6.00;;;23.60;56.30;;;;;;5090889;28;20047;-78
2022/02/09 11:18:10;;;;;;;10.70;7.20;;;22.40;60.00;;;;;;5091883;28;20020;-76
2022/02/09 11:20:58;;;;;;;17.27;8.65;;;21.40;61.20;;;;;;5091349;28;20016;-77
2022/02/09 11:24:05;;;;;;;19.52;7.55;;;20.50;63.20;;;;;;5088158;28;20048;-76
2022/02/09 11:27:48;;;;;;;12.32;7.63;;;19.70;65.90;;;;;;5090696;28;20035;-77
2022/02/09 11:30:25;;;;;;;15.88;7.93;;;19.40;67.30;;;;;;5086398;28;20040;-76
2022/02/09 11:33:18;;;;;;;13.68;7.32;;;19.10;69.20;;;;;;5089471;28;20016;-75
2022/02/09 11:36:06;;;;;;;14.32;7.80;;;18.80;70.60;;;;;;5091493;28;20031;-76
2022/02/09 11:38:38;;;;;;;15.18;7.90;;;18.40;72.10;;;;;;5091664;28;20418;-77
2022/02/09 11:41:27;;;;;;;27.85;8.32;;;17.60;75.00;;;;;;5091324;28;20465;-75
2022/02/09 11:47:20;;;;;;;27.40;8.93;;;17.30;76.40;;;;;;5091376;28;20048;-77
2022/02/09 11:50:07;;;;;;;17.95;10.27;;;17.20;75.80;;;;;;5091125;28;20040;-77
2022/02/09 11:55:49;;;;;;;18.52;10.77;;;16.70;77.70;;;;;;5091416;28;20027;-77
2022/02/09 12:09:42;;;;;;;16.27;11.02;;;15.70;79.50;;;;;;5096033;28;20027;-76
2022/02/09 12:12:20;;;;;;;19.95;11.57;;;15.60;79.90;;;;;;5095501;28;20371;-76
2022/02/09 12:15:04;;;;;;;24.15;10.98;;;15.30;80.20;;;;;;5095568;28;20122;-77
2022/02/09 12:17:47;;;;;;;17.67;11.27;;;15.20;81.60;;;;;;5095655;28;20049;-76
2022/02/09 12:22:47;;;;;;;22.17;11.00;;;15.00;82.40;;;;;;5094945;28;20035;-77
2022/02/09 12:25:13;;;;;;;20.63;10.68;;;15.00;83.20;;;;;;5094856;28;20036;-77
2022/02/09 12:27:42;;;;;;;23.52;11.45;;;15.10;83.30;;;;;;5094815;28;20039;-77
2022/02/09 12:30:10;;;;;;;20.67;11.30;;;15.10;83.40;;;;;;5092206;28;20008;-76
2022/02/09 12:32:37;;;;;;;19.67;11.48;;;15.20;83.70;;;;;;5095024;28;20020;-77
2022/02/09 12:35:10;;;;;;;20.00;10.57;;;15.30;84.30;;;;;;5094792;28;20031;-77
2022/02/09 12:37:41;;;;;;;19.33;11.38;;;15.20;84.60;;;;;;5091782;28;20039;-77
2022/02/09 12:40:19;;;;;;;21.40;11.95;;;15.00;85.70;;;;;;5091806;28;20020;-77
2022/02/09 12:42:47;;;;;;;24.80;12.10;;;14.90;85.80;;;;;;5095091;28;20450;-77
2022/02/09 12:45:25;;;;;;;33.85;12.23;;;14.60;87.10;;;;;;5095376;28;20024;-77
2022/02/09 12:47:57;;;;;;;20.10;12.65;;;14.60;88.00;;;;;;5095202;28;20054;-77
2022/02/09 12:50:39;;;;;;;24.08;11.77;;;14.50;87.40;;;;;;5095089;28;20020;-77
2022/02/09 12:53:04;;;;;;;;;;;14.50;87.80;;;;;;5094943;28;20073;-77
2022/02/09 12:55:33;;;;;;;32.75;14.05;;;14.40;88.20;;;;;;5094411;28;19908;-77
2022/02/09 12:58:10;;;;;;;28.77;12.63;;;14.30;89.20;;;;;;5092919;28;20024;-78
2022/02/09 13:00:43;;;;;;;19.83;12.20;;;14.20;90.20;;;;;;5092879;28;20016;-77
2022/02/09 13:03:20;;;;;;;22.48;12.05;;;14.00;90.60;;;;;;5091889;28;20031;-77
2022/02/09 13:05:56;;;;;;;21.05;12.80;;;13.90;91.20;;;;;;5094161;28;20019;-76
2022/02/09 13:08:23;;;;;;;25.58;13.85;;;13.80;91.40;;;;;;5093882;28;20096;-78
2022/02/09 13:10:48;;;;;;;19.77;13.85;;;13.80;91.30;;;;;;5094295;28;20024;-77
2022/02/09 13:13:21;;;;;;;26.73;14.98;;;13.80;90.80;;;;;;5094114;28;20032;-76
2022/02/09 14:16:25;;;;;;;34.80;19.08;;;12.80;93.30;;;;;;5092009;28;20158;-77
2022/02/09 17:21:22;;;;;;;53.93;26.30;;;9.40;99.90;;;;;;5072817;28;20028;-82
2022/02/09 17:24:50;;;;;;;59.80;24.77;;;9.30;99.90;;;;;;5072906;28;20357;-81
2022/02/09 17:27:59;;;;;;;55.67;28.90;;;9.30;99.90;;;;;;5066418;28;20045;-78
2022/02/09 23:20:03;;;;;;;48.90;28.70;;;;;;;;;;5053743;28;20041;-79
2022/02/09 23:52:51;;;;;;;48.05;26.98;;;5.80;99.90;;;;;;5052491;28;20440;-81
